sensor_id;sensor_type;location;lat;lon;timestamp;P1;durP1;ratioP1;P2;durP2;ratioP2
71106;SDS011;58763;47.982;11.516;2024-01-30T00:01:45;7.85;;;3.75;;
71106;SDS011;58763;47.982;11.516;2024-01-30T00:04:10;7.30;;;3.75;;
71106;SDS011;58763;47.982;11.516;2024-01-30T00:06:36;7.40;;;3.90;;
71106;SDS011;58763;47.982;11.516;2024-01-30T00:09:01;6.93;;;3.60;;
71106;SDS011;58763;47.982;11.516;2024-01-30T00:11:27;6.45;;;3.60;;
71106;SDS011;58763;47.982;11.516;2024-01-30T00:13:54;8.05;;;4.57;;
71106;SDS011;58763;47.982;11.516;2024-01-30T00:16:22;8.00;;;5.10;;
71106;SDS011;58763;47.982;11.516;2024-01-30T00:18:51;7.80;;;4.10;;
71106;SDS011;58763;47.982;11.516;2024-01-30T00:21:18;7.72;;;3.85;;
71106;SDS011;58763;47.982;11.516;2024-01-30T00:23:43;6.88;;;3.70;;
71106;SDS011;58763;47.982;11.516;2024-01-30T00:26:09;6.80;;;3.55;;
71106;SDS011;58763;47.982;11.516;2024-01-30T00:28:35;7.28;;;3.75;;
71106;SDS011;58763;47.982;11.516;2024-01-30T00:31:01;6.63;;;3.67;;
71106;SDS011;58763;47.982;11.516;2024-01-30T00:33:26;6.13;;;3.45;;
71106;SDS011;58763;47.982;11.516;2024-01-30T00:35:52;5.97;;;3.30;;
71106;SDS011;58763;47.982;11.516;2024-01-30T00:38:17;8.68;;;3.17;;
71106;SDS011;58763;47.982;11.516;2024-01-30T00:40:43;6.75;;;3.20;;
71106;SDS011;58763;47.982;11.516;2024-01-30T00:43:09;5.40;;;3.45;;
71106;SDS011;58763;47.982;11.516;2024-01-30T00:45:34;8.77;;;3.50;;
71106;SDS011;58763;47.982;11.516;2024-01-30T00:48:00;5.97;;;3.40;;
71106;SDS011;58763;47.982;11.516;2024-01-30T00:50:26;7.90;;;3.53;;
71106;SDS011;58763;47.982;11.516;2024-01-30T00:52:52;7.85;;;3.20;;
71106;SDS011;58763;47.982;11.516;2024-01-30T00:55:18;6.97;;;3.67;;
71106;SDS011;58763;47.982;11.516;2024-01-30T00:57:43;7.75;;;3.22;;
71106;SDS011;58763;47.982;11.516;2024-01-30T01:00:09;7.05;;;3.13;;
71106;SDS011;58763;47.982;11.516;2024-01-30T01:02:35;6.85;;;3.72;;
71106;SDS011;58763;47.982;11.516;2024-01-30T01:05:01;6.05;;;3.17;;
71106;SDS011;58763;47.982;11.516;2024-01-30T01:07:27;6.53;;;3.47;;
71106;SDS011;58763;47.982;11.516;2024-01-30T01:09:53;5.80;;;3.03;;
71106;SDS011;58763;47.982;11.516;2024-01-30T01:12:18;4.97;;;2.75;;
71106;SDS011;58763;47.982;11.516;2024-01-30T01:14:44;4.95;;;2.65;;
71106;SDS011;58763;47.982;11.516;2024-01-30T01:17:10;6.50;;;3.30;;
71106;SDS011;58763;47.982;11.516;2024-01-30T01:19:36;7.60;;;3.80;;
71106;SDS011;58763;47.982;11.516;2024-01-30T01:22:02;5.35;;;3.08;;
71106;SDS011;58763;47.982;11.516;2024-01-30T01:24:31;6.18;;;3.00;;
71106;SDS011;58763;47.982;11.516;2024-01-30T01:26:57;6.05;;;2.95;;
71106;SDS011;58763;47.982;11.516;2024-01-30T01:29:24;5.65;;;3.08;;
71106;SDS011;58763;47.982;11.516;2024-01-30T01:31:55;5.47;;;2.80;;
71106;SDS011;58763;47.982;11.516;2024-01-30T01:34:21;5.95;;;3.10;;
71106;SDS011;58763;47.982;11.516;2024-01-30T01:36:47;5.05;;;2.72;;
71106;SDS011;58763;47.982;11.516;2024-01-30T01:39:13;5.60;;;3.00;;
71106;SDS011;58763;47.982;11.516;2024-01-30T01:41:39;5.55;;;2.95;;
71106;SDS011;58763;47.982;11.516;2024-01-30T01:44:04;5.82;;;2.85;;
71106;SDS011;58763;47.982;11.516;2024-01-30T01:46:32;5.72;;;2.78;;
71106;SDS011;58763;47.982;11.516;2024-01-30T01:48:58;5.57;;;2.88;;
71106;SDS011;58763;47.982;11.516;2024-01-30T01:51:26;5.30;;;3.00;;
71106;SDS011;58763;47.982;11.516;2024-01-30T01:53:54;4.82;;;2.63;;
71106;SDS011;58763;47.982;11.516;2024-01-30T01:56:21;5.82;;;2.30;;
71106;SDS011;58763;47.982;11.516;2024-01-30T01:58:48;5.20;;;2.42;;
71106;SDS011;58763;47.982;11.516;2024-01-30T02:01:16;4.35;;;2.22;;
71106;SDS011;58763;47.982;11.516;2024-01-30T02:03:45;4.45;;;2.20;;
71106;SDS011;58763;47.982;11.516;2024-01-30T02:06:12;4.78;;;2.33;;
71106;SDS011;58763;47.982;11.516;2024-01-30T02:08:38;5.90;;;2.65;;
71106;SDS011;58763;47.982;11.516;2024-01-30T02:11:04;5.20;;;2.28;;
71106;SDS011;58763;47.982;11.516;2024-01-30T02:13:30;5.05;;;2.30;;
71106;SDS011;58763;47.982;11.516;2024-01-30T02:15:56;4.07;;;2.40;;
71106;SDS011;58763;47.982;11.516;2024-01-30T02:18:22;4.00;;;1.95;;
71106;SDS011;58763;47.982;11.516;2024-01-30T02:20:48;4.95;;;2.25;;
71106;SDS011;58763;47.982;11.516;2024-01-30T02:23:17;7.43;;;2.40;;
71106;SDS011;58763;47.982;11.516;2024-01-30T02:25:44;4.47;;;2.58;;
71106;SDS011;58763;47.982;11.516;2024-01-30T02:28:13;4.28;;;2.30;;
71106;SDS011;58763;47.982;11.516;2024-01-30T02:30:39;5.15;;;2.63;;
71106;SDS011;58763;47.982;11.516;2024-01-30T02:33:05;4.45;;;2.47;;
71106;SDS011;58763;47.982;11.516;2024-01-30T02:35:31;5.38;;;2.72;;
71106;SDS011;58763;47.982;11.516;2024-01-30T02:37:56;4.53;;;2.35;;
71106;SDS011;58763;47.982;11.516;2024-01-30T02:40:22;4.93;;;2.40;;
71106;SDS011;58763;47.982;11.516;2024-01-30T02:42:47;5.50;;;2.58;;
71106;SDS011;58763;47.982;11.516;2024-01-30T02:45:13;4.53;;;2.05;;
71106;SDS011;58763;47.982;11.516;2024-01-30T02:47:39;5.47;;;2.72;;
71106;SDS011;58763;47.982;11.516;2024-01-30T02:50:05;5.00;;;2.42;;
71106;SDS011;58763;47.982;11.516;2024-01-30T02:52:31;4.03;;;2.03;;
71106;SDS011;58763;47.982;11.516;2024-01-30T02:54:56;4.30;;;1.80;;
71106;SDS011;58763;47.982;11.516;2024-01-30T02:57:22;4.18;;;2.00;;
71106;SDS011;58763;47.982;11.516;2024-01-30T02:59:48;5.47;;;2.22;;
71106;SDS011;58763;47.982;11.516;2024-01-30T03:02:13;4.30;;;2.08;;
71106;SDS011;58763;47.982;11.516;2024-01-30T03:04:42;4.05;;;2.10;;
71106;SDS011;58763;47.982;11.516;2024-01-30T03:07:08;5.30;;;2.30;;
71106;SDS011;58763;47.982;11.516;2024-01-30T03:09:34;5.25;;;2.20;;
71106;SDS011;58763;47.982;11.516;2024-01-30T03:12:00;4.93;;;2.10;;
71106;SDS011;58763;47.982;11.516;2024-01-30T03:14:26;5.15;;;2.35;;
71106;SDS011;58763;47.982;11.516;2024-01-30T03:16:52;4.80;;;2.38;;
71106;SDS011;58763;47.982;11.516;2024-01-30T03:19:17;4.70;;;2.25;;
71106;SDS011;58763;47.982;11.516;2024-01-30T03:21:44;4.53;;;2.25;;
71106;SDS011;58763;47.982;11.516;2024-01-30T03:24:10;5.13;;;2.72;;
71106;SDS011;58763;47.982;11.516;2024-01-30T03:26:35;5.60;;;2.33;;
71106;SDS011;58763;47.982;11.516;2024-01-30T03:29:01;4.32;;;1.77;;
71106;SDS011;58763;47.982;11.516;2024-01-30T03:31:27;5.00;;;1.90;;
71106;SDS011;58763;47.982;11.516;2024-01-30T03:33:52;3.38;;;1.63;;
71106;SDS011;58763;47.982;11.516;2024-01-30T03:36:18;4.45;;;1.98;;
71106;SDS011;58763;47.982;11.516;2024-01-30T03:38:43;3.58;;;1.77;;
71106;SDS011;58763;47.982;11.516;2024-01-30T03:41:09;4.80;;;2.15;;
71106;SDS011;58763;47.982;11.516;2024-01-30T03:43:35;4.65;;;1.92;;
71106;SDS011;58763;47.982;11.516;2024-01-30T03:46:01;4.78;;;1.85;;
71106;SDS011;58763;47.982;11.516;2024-01-30T03:48:28;4.35;;;2.13;;
71106;SDS011;58763;47.982;11.516;2024-01-30T03:50:54;4.00;;;1.88;;
71106;SDS011;58763;47.982;11.516;2024-01-30T03:53:21;3.40;;;1.80;;
71106;SDS011;58763;47.982;11.516;2024-01-30T03:55:47;3.97;;;1.52;;
71106;SDS011;58763;47.982;11.516;2024-01-30T03:58:12;4.10;;;1.80;;
71106;SDS011;58763;47.982;11.516;2024-01-30T04:00:38;4.25;;;1.92;;
71106;SDS011;58763;47.982;11.516;2024-01-30T04:03:05;4.63;;;1.83;;
71106;SDS011;58763;47.982;11.516;2024-01-30T04:05:31;3.70;;;1.70;;
71106;SDS011;58763;47.982;11.516;2024-01-30T04:07:57;6.38;;;2.13;;
71106;SDS011;58763;47.982;11.516;2024-01-30T04:10:23;4.20;;;2.00;;
71106;SDS011;58763;47.982;11.516;2024-01-30T04:12:50;4.07;;;2.00;;
71106;SDS011;58763;47.982;11.516;2024-01-30T04:15:17;4.43;;;2.15;;
71106;SDS011;58763;47.982;11.516;2024-01-30T04:17:43;4.25;;;1.88;;
71106;SDS011;58763;47.982;11.516;2024-01-30T04:20:15;4.15;;;1.90;;
71106;SDS011;58763;47.982;11.516;2024-01-30T04:22:45;5.10;;;2.22;;
71106;SDS011;58763;47.982;11.516;2024-01-30T04:25:12;4.13;;;2.08;;
71106;SDS011;58763;47.982;11.516;2024-01-30T04:27:38;4.32;;;1.90;;
71106;SDS011;58763;47.982;11.516;2024-01-30T04:30:04;5.63;;;2.00;;
71106;SDS011;58763;47.982;11.516;2024-01-30T04:32:30;4.05;;;1.85;;
71106;SDS011;58763;47.982;11.516;2024-01-30T04:34:55;5.43;;;1.92;;
71106;SDS011;58763;47.982;11.516;2024-01-30T04:37:21;3.72;;;1.65;;
71106;SDS011;58763;47.982;11.516;2024-01-30T04:39:47;3.28;;;1.40;;
71106;SDS011;58763;47.982;11.516;2024-01-30T04:42:12;4.07;;;1.80;;
71106;SDS011;58763;47.982;11.516;2024-01-30T04:44:38;3.22;;;1.52;;
71106;SDS011;58763;47.982;11.516;2024-01-30T04:47:04;3.83;;;1.60;;
71106;SDS011;58763;47.982;11.516;2024-01-30T04:49:31;3.22;;;1.58;;
71106;SDS011;58763;47.982;11.516;2024-01-30T04:51:57;3.97;;;1.60;;
71106;SDS011;58763;47.982;11.516;2024-01-30T04:54:24;3.55;;;1.63;;
71106;SDS011;58763;47.982;11.516;2024-01-30T04:56:49;3.85;;;1.42;;
71106;SDS011;58763;47.982;11.516;2024-01-30T04:59:15;3.72;;;1.80;;
71106;SDS011;58763;47.982;11.516;2024-01-30T05:01:41;4.03;;;1.42;;
71106;SDS011;58763;47.982;11.516;2024-01-30T05:04:07;3.28;;;1.52;;
71106;SDS011;58763;47.982;11.516;2024-01-30T05:06:33;4.32;;;1.50;;
71106;SDS011;58763;47.982;11.516;2024-01-30T05:08:58;2.85;;;1.30;;
71106;SDS011;58763;47.982;11.516;2024-01-30T05:11:24;3.20;;;1.30;;
71106;SDS011;58763;47.982;11.516;2024-01-30T05:13:50;3.17;;;1.50;;
71106;SDS011;58763;47.982;11.516;2024-01-30T05:16:15;2.60;;;1.20;;
71106;SDS011;58763;47.982;11.516;2024-01-30T05:18:41;3.30;;;1.20;;
71106;SDS011;58763;47.982;11.516;2024-01-30T05:21:06;3.03;;;1.20;;
71106;SDS011;58763;47.982;11.516;2024-01-30T05:23:33;2.13;;;1.00;;
71106;SDS011;58763;47.982;11.516;2024-01-30T05:25:59;3.10;;;0.90;;
71106;SDS011;58763;47.982;11.516;2024-01-30T05:28:26;2.15;;;0.85;;
71106;SDS011;58763;47.982;11.516;2024-01-30T05:30:52;2.05;;;0.73;;
71106;SDS011;58763;47.982;11.516;2024-01-30T05:33:17;2.25;;;0.95;;
71106;SDS011;58763;47.982;11.516;2024-01-30T05:35:43;3.08;;;1.20;;
71106;SDS011;58763;47.982;11.516;2024-01-30T05:38:08;2.90;;;1.00;;
71106;SDS011;58763;47.982;11.516;2024-01-30T05:40:34;2.65;;;1.10;;
71106;SDS011;58763;47.982;11.516;2024-01-30T05:42:59;3.17;;;0.98;;
71106;SDS011;58763;47.982;11.516;2024-01-30T05:45:26;2.70;;;1.10;;
71106;SDS011;58763;47.982;11.516;2024-01-30T05:47:52;2.65;;;0.90;;
71106;SDS011;58763;47.982;11.516;2024-01-30T05:50:19;1.95;;;0.90;;
71106;SDS011;58763;47.982;11.516;2024-01-30T05:52:45;3.13;;;1.00;;
71106;SDS011;58763;47.982;11.516;2024-01-30T05:55:11;4.85;;;1.30;;
71106;SDS011;58763;47.982;11.516;2024-01-30T05:57:38;2.78;;;1.10;;
71106;SDS011;58763;47.982;11.516;2024-01-30T06:00:07;1.85;;;0.90;;
71106;SDS011;58763;47.982;11.516;2024-01-30T06:02:34;2.53;;;1.00;;
71106;SDS011;58763;47.982;11.516;2024-01-30T06:04:59;2.40;;;1.10;;
71106;SDS011;58763;47.982;11.516;2024-01-30T06:07:25;1.83;;;0.90;;
71106;SDS011;58763;47.982;11.516;2024-01-30T06:09:51;3.90;;;1.10;;
71106;SDS011;58763;47.982;11.516;2024-01-30T06:12:17;4.70;;;1.77;;
71106;SDS011;58763;47.982;11.516;2024-01-30T06:14:42;5.20;;;2.00;;
71106;SDS011;58763;47.982;11.516;2024-01-30T06:17:11;6.30;;;2.85;;
71106;SDS011;58763;47.982;11.516;2024-01-30T06:19:37;7.28;;;3.63;;
71106;SDS011;58763;47.982;11.516;2024-01-30T06:22:04;7.07;;;3.70;;
71106;SDS011;58763;47.982;11.516;2024-01-30T06:24:30;3.38;;;1.60;;
71106;SDS011;58763;47.982;11.516;2024-01-30T06:26:56;10.43;;;5.72;;
71106;SDS011;58763;47.982;11.516;2024-01-30T06:29:22;11.90;;;6.60;;
71106;SDS011;58763;47.982;11.516;2024-01-30T06:31:50;7.47;;;3.50;;
71106;SDS011;58763;47.982;11.516;2024-01-30T06:34:15;5.60;;;2.72;;
71106;SDS011;58763;47.982;11.516;2024-01-30T06:36:41;5.28;;;2.33;;
71106;SDS011;58763;47.982;11.516;2024-01-30T06:39:07;3.45;;;1.40;;
71106;SDS011;58763;47.982;11.516;2024-01-30T06:41:33;3.45;;;1.38;;
71106;SDS011;58763;47.982;11.516;2024-01-30T06:43:59;2.75;;;1.25;;
71106;SDS011;58763;47.982;11.516;2024-01-30T06:46:25;3.20;;;1.25;;
71106;SDS011;58763;47.982;11.516;2024-01-30T06:48:51;3.03;;;1.17;;
71106;SDS011;58763;47.982;11.516;2024-01-30T06:51:17;3.25;;;1.00;;
71106;SDS011;58763;47.982;11.516;2024-01-30T06:53:42;3.03;;;1.20;;
71106;SDS011;58763;47.982;11.516;2024-01-30T06:56:08;3.85;;;1.15;;
71106;SDS011;58763;47.982;11.516;2024-01-30T06:58:33;3.17;;;1.30;;
71106;SDS011;58763;47.982;11.516;2024-01-30T07:00:59;3.50;;;1.30;;
71106;SDS011;58763;47.982;11.516;2024-01-30T07:03:25;4.20;;;1.13;;
71106;SDS011;58763;47.982;11.516;2024-01-30T07:05:51;3.72;;;1.25;;
71106;SDS011;58763;47.982;11.516;2024-01-30T07:08:17;2.97;;;1.20;;
71106;SDS011;58763;47.982;11.516;2024-01-30T07:10:43;3.78;;;1.55;;
71106;SDS011;58763;47.982;11.516;2024-01-30T07:13:12;4.28;;;1.40;;
71106;SDS011;58763;47.982;11.516;2024-01-30T07:15:38;2.72;;;1.30;;
71106;SDS011;58763;47.982;11.516;2024-01-30T07:18:04;2.38;;;1.10;;
71106;SDS011;58763;47.982;11.516;2024-01-30T07:20:31;2.60;;;1.00;;
71106;SDS011;58763;47.982;11.516;2024-01-30T07:23:00;1.98;;;1.00;;
71106;SDS011;58763;47.982;11.516;2024-01-30T07:25:26;2.13;;;0.90;;
71106;SDS011;58763;47.982;11.516;2024-01-30T07:27:55;3.58;;;1.08;;
71106;SDS011;58763;47.982;11.516;2024-01-30T07:30:21;3.00;;;1.25;;
71106;SDS011;58763;47.982;11.516;2024-01-30T07:32:48;2.53;;;1.00;;
71106;SDS011;58763;47.982;11.516;2024-01-30T07:35:14;2.50;;;1.00;;
71106;SDS011;58763;47.982;11.516;2024-01-30T07:37:40;2.40;;;1.05;;
71106;SDS011;58763;47.982;11.516;2024-01-30T07:40:06;3.10;;;1.17;;
71106;SDS011;58763;47.982;11.516;2024-01-30T07:42:32;2.53;;;1.10;;
71106;SDS011;58763;47.982;11.516;2024-01-30T07:44:58;2.70;;;1.02;;
71106;SDS011;58763;47.982;11.516;2024-01-30T07:47:25;3.33;;;1.13;;
71106;SDS011;58763;47.982;11.516;2024-01-30T07:49:51;2.38;;;1.13;;
71106;SDS011;58763;47.982;11.516;2024-01-30T07:52:17;2.45;;;0.90;;
71106;SDS011;58763;47.982;11.516;2024-01-30T07:54:42;5.63;;;1.10;;
71106;SDS011;58763;47.982;11.516;2024-01-30T07:57:08;2.30;;;0.90;;
71106;SDS011;58763;47.982;11.516;2024-01-30T07:59:34;2.33;;;0.90;;
71106;SDS011;58763;47.982;11.516;2024-01-30T08:02:00;2.00;;;0.80;;
71106;SDS011;58763;47.982;11.516;2024-01-30T08:04:25;2.17;;;0.80;;
71106;SDS011;58763;47.982;11.516;2024-01-30T08:06:51;2.53;;;0.90;;
71106;SDS011;58763;47.982;11.516;2024-01-30T08:09:17;2.65;;;0.70;;
71106;SDS011;58763;47.982;11.516;2024-01-30T08:11:42;2.13;;;0.88;;
71106;SDS011;58763;47.982;11.516;2024-01-30T08:14:08;2.08;;;0.70;;
71106;SDS011;58763;47.982;11.516;2024-01-30T08:16:33;2.10;;;0.68;;
71106;SDS011;58763;47.982;11.516;2024-01-30T08:18:59;2.47;;;0.90;;
71106;SDS011;58763;47.982;11.516;2024-01-30T08:21:26;1.38;;;0.68;;
71106;SDS011;58763;47.982;11.516;2024-01-30T08:23:51;1.77;;;0.90;;
71106;SDS011;58763;47.982;11.516;2024-01-30T08:26:17;2.00;;;0.80;;
71106;SDS011;58763;47.982;11.516;2024-01-30T08:28:44;2.10;;;0.73;;
71106;SDS011;58763;47.982;11.516;2024-01-30T08:31:10;2.05;;;0.80;;
71106;SDS011;58763;47.982;11.516;2024-01-30T08:33:37;2.05;;;0.80;;
71106;SDS011;58763;47.982;11.516;2024-01-30T08:36:03;3.28;;;1.17;;
71106;SDS011;58763;47.982;11.516;2024-01-30T08:38:28;2.25;;;0.85;;
71106;SDS011;58763;47.982;11.516;2024-01-30T08:40:55;2.40;;;0.80;;
71106;SDS011;58763;47.982;11.516;2024-01-30T08:43:21;1.67;;;0.70;;
71106;SDS011;58763;47.982;11.516;2024-01-30T08:45:47;2.42;;;0.70;;
71106;SDS011;58763;47.982;11.516;2024-01-30T08:48:13;1.77;;;0.70;;
71106;SDS011;58763;47.982;11.516;2024-01-30T08:50:39;2.30;;;0.75;;
71106;SDS011;58763;47.982;11.516;2024-01-30T08:53:04;1.92;;;0.60;;
71106;SDS011;58763;47.982;11.516;2024-01-30T08:55:30;1.67;;;0.65;;
71106;SDS011;58763;47.982;11.516;2024-01-30T08:57:56;1.42;;;0.55;;
71106;SDS011;58763;47.982;11.516;2024-01-30T09:00:21;2.92;;;0.95;;
71106;SDS011;58763;47.982;11.516;2024-01-30T09:02:47;2.47;;;0.80;;
71106;SDS011;58763;47.982;11.516;2024-01-30T09:05:13;2.30;;;0.70;;
71106;SDS011;58763;47.982;11.516;2024-01-30T09:07:39;2.63;;;0.80;;
71106;SDS011;58763;47.982;11.516;2024-01-30T09:10:05;1.45;;;0.60;;
71106;SDS011;58763;47.982;11.516;2024-01-30T09:12:31;2.72;;;0.60;;
71106;SDS011;58763;47.982;11.516;2024-01-30T09:14:57;2.60;;;1.00;;
71106;SDS011;58763;47.982;11.516;2024-01-30T09:17:22;3.15;;;0.93;;
71106;SDS011;58763;47.982;11.516;2024-01-30T09:19:48;3.38;;;0.90;;
71106;SDS011;58763;47.982;11.516;2024-01-30T09:22:13;3.63;;;0.98;;
71106;SDS011;58763;47.982;11.516;2024-01-30T09:24:39;2.10;;;0.70;;
71106;SDS011;58763;47.982;11.516;2024-01-30T09:27:06;2.15;;;0.77;;
71106;SDS011;58763;47.982;11.516;2024-01-30T09:29:31;1.63;;;0.60;;
71106;SDS011;58763;47.982;11.516;2024-01-30T09:31:59;2.25;;;1.00;;
71106;SDS011;58763;47.982;11.516;2024-01-30T09:34:25;2.63;;;0.80;;
71106;SDS011;58763;47.982;11.516;2024-01-30T09:36:51;2.10;;;0.70;;
71106;SDS011;58763;47.982;11.516;2024-01-30T09:39:16;2.35;;;0.70;;
71106;SDS011;58763;47.982;11.516;2024-01-30T09:41:47;2.35;;;0.73;;
71106;SDS011;58763;47.982;11.516;2024-01-30T09:44:17;2.70;;;0.75;;
71106;SDS011;58763;47.982;11.516;2024-01-30T09:46:45;2.17;;;0.70;;
71106;SDS011;58763;47.982;11.516;2024-01-30T09:49:13;1.80;;;0.68;;
71106;SDS011;58763;47.982;11.516;2024-01-30T09:51:39;1.98;;;0.68;;
71106;SDS011;58763;47.982;11.516;2024-01-30T09:54:06;1.98;;;0.73;;
71106;SDS011;58763;47.982;11.516;2024-01-30T09:56:33;1.90;;;0.70;;
71106;SDS011;58763;47.982;11.516;2024-01-30T09:58:59;1.67;;;0.60;;
71106;SDS011;58763;47.982;11.516;2024-01-30T10:01:24;1.67;;;0.65;;
71106;SDS011;58763;47.982;11.516;2024-01-30T10:03:51;3.20;;;0.70;;
71106;SDS011;58763;47.982;11.516;2024-01-30T10:06:18;1.95;;;0.68;;
71106;SDS011;58763;47.982;11.516;2024-01-30T10:08:46;2.53;;;0.90;;
71106;SDS011;58763;47.982;11.516;2024-01-30T10:11:11;2.13;;;0.77;;
71106;SDS011;58763;47.982;11.516;2024-01-30T10:13:38;3.72;;;0.85;;
71106;SDS011;58763;47.982;11.516;2024-01-30T10:16:04;2.10;;;0.80;;
71106;SDS011;58763;47.982;11.516;2024-01-30T10:18:32;3.70;;;0.73;;
71106;SDS011;58763;47.982;11.516;2024-01-30T10:20:58;2.45;;;0.80;;
71106;SDS011;58763;47.982;11.516;2024-01-30T10:23:24;2.53;;;0.80;;
71106;SDS011;58763;47.982;11.516;2024-01-30T10:25:53;2.63;;;0.90;;
71106;SDS011;58763;47.982;11.516;2024-01-30T10:28:19;1.85;;;0.70;;
71106;SDS011;58763;47.982;11.516;2024-01-30T10:30:44;3.08;;;0.60;;
71106;SDS011;58763;47.982;11.516;2024-01-30T10:33:10;4.60;;;1.10;;
71106;SDS011;58763;47.982;11.516;2024-01-30T10:35:36;2.67;;;1.27;;
71106;SDS011;58763;47.982;11.516;2024-01-30T10:38:01;4.25;;;2.40;;
71106;SDS011;58763;47.982;11.516;2024-01-30T10:40:28;3.47;;;2.13;;
71106;SDS011;58763;47.982;11.516;2024-01-30T10:42:55;4.07;;;1.90;;
71106;SDS011;58763;47.982;11.516;2024-01-30T10:45:21;2.83;;;1.30;;
71106;SDS011;58763;47.982;11.516;2024-01-30T10:47:53;3.22;;;1.02;;
71106;SDS011;58763;47.982;11.516;2024-01-30T10:50:24;2.13;;;0.52;;
71106;SDS011;58763;47.982;11.516;2024-01-30T10:52:51;1.40;;;0.70;;
71106;SDS011;58763;47.982;11.516;2024-01-30T10:55:19;1.90;;;0.70;;
71106;SDS011;58763;47.982;11.516;2024-01-30T10:57:47;1.92;;;0.70;;
71106;SDS011;58763;47.982;11.516;2024-01-30T11:00:14;3.05;;;0.75;;
71106;SDS011;58763;47.982;11.516;2024-01-30T11:02:41;3.30;;;0.88;;
71106;SDS011;58763;47.982;11.516;2024-01-30T11:05:09;2.00;;;0.80;;
71106;SDS011;58763;47.982;11.516;2024-01-30T11:07:36;4.28;;;0.77;;
71106;SDS011;58763;47.982;11.516;2024-01-30T11:10:04;2.88;;;0.73;;
71106;SDS011;58763;47.982;11.516;2024-01-30T11:12:32;1.67;;;0.80;;
71106;SDS011;58763;47.982;11.516;2024-01-30T11:17:43;2.97;;;0.80;;
71106;SDS011;58763;47.982;11.516;2024-01-30T11:20:11;2.17;;;0.70;;
71106;SDS011;58763;47.982;11.516;2024-01-30T11:22:47;2.63;;;0.95;;
71106;SDS011;58763;47.982;11.516;2024-01-30T11:25:16;2.95;;;0.80;;
71106;SDS011;58763;47.982;11.516;2024-01-30T11:27:43;2.25;;;0.80;;
71106;SDS011;58763;47.982;11.516;2024-01-30T11:30:10;5.38;;;0.95;;
71106;SDS011;58763;47.982;11.516;2024-01-30T11:32:57;1.88;;;0.80;;
71106;SDS011;58763;47.982;11.516;2024-01-30T11:35:32;2.50;;;1.00;;
71106;SDS011;58763;47.982;11.516;2024-01-30T11:37:59;2.15;;;0.80;;
71106;SDS011;58763;47.982;11.516;2024-01-30T11:40:29;1.90;;;0.70;;
71106;SDS011;58763;47.982;11.516;2024-01-30T11:42:56;2.30;;;0.80;;
71106;SDS011;58763;47.982;11.516;2024-01-30T11:45:24;2.22;;;0.90;;
71106;SDS011;58763;47.982;11.516;2024-01-30T11:47:50;2.00;;;0.80;;
71106;SDS011;58763;47.982;11.516;2024-01-30T11:50:16;1.88;;;0.80;;
71106;SDS011;58763;47.982;11.516;2024-01-30T11:52:42;2.38;;;0.80;;
71106;SDS011;58763;47.982;11.516;2024-01-30T11:55:08;3.60;;;1.00;;
71106;SDS011;58763;47.982;11.516;2024-01-30T11:57:35;2.83;;;0.90;;
71106;SDS011;58763;47.982;11.516;2024-01-30T12:00:05;3.55;;;0.70;;
71106;SDS011;58763;47.982;11.516;2024-01-30T12:02:35;2.00;;;0.88;;
71106;SDS011;58763;47.982;11.516;2024-01-30T12:05:05;2.60;;;0.80;;
71106;SDS011;58763;47.982;11.516;2024-01-30T12:07:32;2.33;;;0.88;;
71106;SDS011;58763;47.982;11.516;2024-01-30T12:09:59;2.38;;;0.88;;
71106;SDS011;58763;47.982;11.516;2024-01-30T12:12:25;2.38;;;0.80;;
71106;SDS011;58763;47.982;11.516;2024-01-30T12:14:52;3.45;;;1.02;;
71106;SDS011;58763;47.982;11.516;2024-01-30T12:20:11;2.70;;;1.02;;
71106;SDS011;58763;47.982;11.516;2024-01-30T12:22:41;3.75;;;0.98;;
71106;SDS011;58763;47.982;11.516;2024-01-30T12:27:35;2.53;;;0.90;;
71106;SDS011;58763;47.982;11.516;2024-01-30T12:30:04;2.00;;;0.80;;
71106;SDS011;58763;47.982;11.516;2024-01-30T12:32:31;2.28;;;0.88;;
71106;SDS011;58763;47.982;11.516;2024-01-30T12:34:57;2.70;;;1.08;;
71106;SDS011;58763;47.982;11.516;2024-01-30T12:37:23;3.40;;;1.00;;
71106;SDS011;58763;47.982;11.516;2024-01-30T12:39:51;3.03;;;1.10;;
71106;SDS011;58763;47.982;11.516;2024-01-30T12:42:19;2.30;;;0.98;;
71106;SDS011;58763;47.982;11.516;2024-01-30T12:44:46;2.53;;;0.90;;
71106;SDS011;58763;47.982;11.516;2024-01-30T12:47:13;4.82;;;1.10;;
71106;SDS011;58763;47.982;11.516;2024-01-30T12:49:38;2.30;;;0.90;;
71106;SDS011;58763;47.982;11.516;2024-01-30T12:52:04;2.50;;;1.08;;
71106;SDS011;58763;47.982;11.516;2024-01-30T12:54:30;3.13;;;1.25;;
71106;SDS011;58763;47.982;11.516;2024-01-30T12:56:55;4.00;;;0.90;;
71106;SDS011;58763;47.982;11.516;2024-01-30T12:59:22;3.90;;;1.08;;
71106;SDS011;58763;47.982;11.516;2024-01-30T13:01:48;3.33;;;1.00;;
71106;SDS011;58763;47.982;11.516;2024-01-30T13:04:14;2.67;;;0.93;;
71106;SDS011;58763;47.982;11.516;2024-01-30T13:06:41;2.47;;;0.80;;
71106;SDS011;58763;47.982;11.516;2024-01-30T13:09:07;2.58;;;1.10;;
71106;SDS011;58763;47.982;11.516;2024-01-30T13:11:33;2.63;;;0.90;;
71106;SDS011;58763;47.982;11.516;2024-01-30T13:13:59;1.65;;;0.70;;
71106;SDS011;58763;47.982;11.516;2024-01-30T13:16:25;3.00;;;1.10;;
71106;SDS011;58763;47.982;11.516;2024-01-30T13:18:51;2.83;;;0.85;;
71106;SDS011;58763;47.982;11.516;2024-01-30T13:21:17;2.05;;;0.90;;
71106;SDS011;58763;47.982;11.516;2024-01-30T13:23:43;2.65;;;0.85;;
71106;SDS011;58763;47.982;11.516;2024-01-30T13:26:09;3.15;;;1.13;;
71106;SDS011;58763;47.982;11.516;2024-01-30T13:28:34;2.25;;;0.90;;
71106;SDS011;58763;47.982;11.516;2024-01-30T13:31:00;2.38;;;0.85;;
71106;SDS011;58763;47.982;11.516;2024-01-30T13:33:26;2.10;;;0.77;;
71106;SDS011;58763;47.982;11.516;2024-01-30T13:35:51;3.70;;;0.88;;
71106;SDS011;58763;47.982;11.516;2024-01-30T13:38:17;3.70;;;0.90;;
71106;SDS011;58763;47.982;11.516;2024-01-30T13:40:43;2.55;;;1.00;;
71106;SDS011;58763;47.982;11.516;2024-01-30T13:43:08;2.05;;;0.85;;
71106;SDS011;58763;47.982;11.516;2024-01-30T13:45:34;2.45;;;0.90;;
71106;SDS011;58763;47.982;11.516;2024-01-30T13:47:59;2.55;;;0.90;;
71106;SDS011;58763;47.982;11.516;2024-01-30T13:50:25;4.85;;;0.90;;
71106;SDS011;58763;47.982;11.516;2024-01-30T13:52:50;2.17;;;0.88;;
71106;SDS011;58763;47.982;11.516;2024-01-30T13:55:16;3.30;;;1.00;;
71106;SDS011;58763;47.982;11.516;2024-01-30T13:57:42;3.30;;;1.30;;
71106;SDS011;58763;47.982;11.516;2024-01-30T14:00:08;2.80;;;0.90;;
71106;SDS011;58763;47.982;11.516;2024-01-30T14:02:34;2.17;;;1.02;;
71106;SDS011;58763;47.982;11.516;2024-01-30T14:04:59;2.97;;;0.82;;
71106;SDS011;58763;47.982;11.516;2024-01-30T14:07:25;3.25;;;1.10;;
71106;SDS011;58763;47.982;11.516;2024-01-30T14:09:51;2.80;;;0.90;;
71106;SDS011;58763;47.982;11.516;2024-01-30T14:12:17;3.13;;;1.00;;
71106;SDS011;58763;47.982;11.516;2024-01-30T14:14:43;3.42;;;1.10;;
71106;SDS011;58763;47.982;11.516;2024-01-30T14:17:09;3.38;;;1.10;;
71106;SDS011;58763;47.982;11.516;2024-01-30T14:19:35;2.78;;;1.05;;
71106;SDS011;58763;47.982;11.516;2024-01-30T14:22:03;1.95;;;0.70;;
71106;SDS011;58763;47.982;11.516;2024-01-30T14:24:29;2.67;;;0.80;;
71106;SDS011;58763;47.982;11.516;2024-01-30T14:26:55;2.17;;;0.90;;
71106;SDS011;58763;47.982;11.516;2024-01-30T14:29:20;2.17;;;0.88;;
71106;SDS011;58763;47.982;11.516;2024-01-30T14:31:46;2.88;;;1.00;;
71106;SDS011;58763;47.982;11.516;2024-01-30T14:34:11;2.17;;;0.80;;
71106;SDS011;58763;47.982;11.516;2024-01-30T14:36:37;2.70;;;1.15;;